Time;durP1;ratioP1;P1;durP2;ratioP2;P2;SDS_P1;SDS_P2;PMS_P1;PMS_P2;Temp;Humidity;BMP_temperature;BMP_pressure;BME280_temperature;BME280_humidity;BME280_pressure;Samples;Min_cycle;Max_cycle;Signal;HPM_P1;HPM_P2
2024/01/13 00:00:37;;;;;;;14.52;3.60;;;3.80;99.90;;;;;;5058341;28;20079;-62
2024/01/13 00:03:03;;;;;;;15.25;2.78;;;3.60;99.90;;;;;;5056782;28;20037;-62
2024/01/13 00:05:29;;;;;;;12.00;3.50;;;3.10;99.90;;;;;;5057414;28;20047;-63
2024/01/13 00:07:55;;;;;;;12.45;3.33;;;1.60;99.90;;;;;;5058295;28;20060;-63
2024/01/13 00:10:21;;;;;;;14.38;3.72;;;4.00;99.90;;;;;;5056990;28;20037;-63
2024/01/13 00:12:46;;;;;;;9.75;3.15;;;1.40;99.90;;;;;;5040803;28;20037;-64
2024/01/13 00:15:12;;;;;;;10.40;3.00;;;3.80;99.90;;;;;;5058570;28;20049;-63
2024/01/13 00:17:38;;;;;;;10.70;3.75;;;2.20;99.90;;;;;;5040616;28;20098;-64
2024/01/13 00:20:04;;;;;;;12.70;4.05;;;1.60;99.90;;;;;;5058008;28;20037;-64
2024/01/13 00:22:30;;;;;;;10.38;4.03;;;3.30;99.90;;;;;;5058490;28;20381;-64
2024/01/13 00:24:56;;;;;;;13.43;4.30;;;2.90;99.90;;;;;;5040531;28;20542;-64
2024/01/13 00:27:21;;;;;;;11.80;4.07;;;1.80;99.90;;;;;;5058288;28;20105;-63
2024/01/13 00:29:47;;;;;;;14.07;3.92;;;2.70;99.90;;;;;;5057125;28;20033;-64
2024/01/13 00:32:13;;;;;;;13.95;3.63;;;1.90;99.90;;;;;;5040398;28;20055;-64
2024/01/13 00:34:38;;;;;;;11.45;5.32;;;4.10;99.90;;;;;;5040351;28;20049;-63
2024/01/13 00:37:04;;;;;;;12.48;3.97;;;4.10;99.90;;;;;;5056886;28;20045;-63
2024/01/13 00:39:30;;;;;;;10.77;3.20;;;1.70;99.90;;;;;;5056762;28;20044;-63
2024/01/13 00:41:55;;;;;;;12.02;3.22;;;4.10;99.90;;;;;;5058031;28;20048;-63
2024/01/13 00:44:21;;;;;;;9.05;3.20;;;1.50;99.90;;;;;;5058266;28;20037;-63
2024/01/13 00:46:47;;;;;;;14.52;3.08;;;4.10;99.90;;;;;;5058452;28;20084;-63
2024/01/13 00:49:12;;;;;;;9.18;3.05;;;3.30;99.90;;;;;;5058441;28;20048;-62
2024/01/13 00:51:38;;;;;;;10.98;3.08;;;3.40;99.90;;;;;;5058467;28;20052;-62
2024/01/13 00:54:06;;;;;;;14.38;3.38;;;1.70;99.90;;;;;;5039594;28;20550;-62
2024/01/13 00:56:33;;;;;;;10.85;3.20;;;3.70;99.90;;;;;;5056527;28;20128;-62
2024/01/13 00:58:59;;;;;;;11.18;3.20;;;3.80;99.90;;;;;;5058278;28;20069;-62
2024/01/13 01:01:24;;;;;;;9.25;2.97;;;3.70;99.90;;;;;;5039800;28;20056;-62
2024/01/13 01:03:50;;;;;;;11.23;2.95;;;3.20;99.90;;;;;;5058335;28;20049;-62
2024/01/13 01:06:16;;;;;;;16.92;3.40;;;3.50;99.90;;;;;;5040282;28;20049;-62
2024/01/13 01:08:42;;;;;;;11.13;3.10;;;1.30;99.90;;;;;;5057738;28;20068;-62
2024/01/13 01:11:08;;;;;;;15.20;4.53;;;1.50;99.90;;;;;;5058013;28;20045;-62
2024/01/13 01:13:34;;;;;;;9.95;3.33;;;3.20;99.90;;;;;;5058079;28;20044;-63
2024/01/13 01:16:00;;;;;;;9.25;2.83;;;3.30;99.90;;;;;;5041365;28;20049;-63
2024/01/13 01:18:25;;;;;;;7.47;2.92;;;1.30;99.90;;;;;;5061541;28;20476;-63
2024/01/13 01:20:51;;;;;;;12.88;2.95;;;1.30;99.90;;;;;;5043721;28;20033;-63
2024/01/13 01:23:17;;;;;;;17.25;3.70;;;3.00;99.90;;;;;;5043601;28;20511;-63
2024/01/13 01:25:42;;;;;;;14.52;3.75;;;3.60;99.90;;;;;;5061629;28;20045;-63
2024/01/13 01:28:08;;;;;;;9.85;3.35;;;1.30;99.90;;;;;;5043398;28;20045;-62
2024/01/13 01:30:33;;;;;;;13.45;3.45;;;3.10;99.90;;;;;;5060937;28;20048;-63
2024/01/13 01:32:59;;;;;;;8.55;3.63;;;2.10;99.90;;;;;;5059921;28;20121;-63
2024/01/13 01:35:25;;;;;;;8.70;3.17;;;2.80;99.90;;;;;;5042307;28;20044;-63
2024/01/13 01:37:51;;;;;;;11.15;3.10;;;1.70;99.90;;;;;;5060965;28;20045;-62
2024/01/13 01:40:19;;;;;;;12.20;2.95;;;1.90;99.90;;;;;;5060949;28;20044;-62
2024/01/13 01:42:44;;;;;;;10.18;3.05;;;2.50;99.90;;;;;;5061196;28;20053;-62
2024/01/13 01:45:10;;;;;;;10.77;3.03;;;4.10;99.90;;;;;;5043312;28;20102;-63
2024/01/13 01:47:38;;;;;;;8.02;2.85;;;2.70;99.90;;;;;;5059581;28;20053;-62
2024/01/13 01:50:04;;;;;;;8.73;3.15;;;3.70;99.90;;;;;;5060844;28;20048;-62
2024/01/13 01:52:29;;;;;;;10.90;3.00;;;1.60;99.90;;;;;;5060837;28;20049;-62
2024/01/13 01:54:55;;;;;;;10.05;2.72;;;4.00;99.90;;;;;;5060442;28;20045;-61
2024/01/13 01:57:21;;;;;;;8.93;2.78;;;1.60;99.90;;;;;;5060582;28;20044;-62
2024/01/13 01:59:47;;;;;;;10.82;2.95;;;1.70;99.90;;;;;;5042707;28;20045;-63
2024/01/13 02:02:13;;;;;;;9.38;2.95;;;1.70;99.90;;;;;;5060568;28;20072;-63
2024/01/13 02:04:40;;;;;;;10.32;2.90;;;1.60;99.90;;;;;;5059976;28;20044;-62
2024/01/13 02:07:06;;;;;;;11.45;3.05;;;3.40;99.90;;;;;;5060267;28;20058;-62
2024/01/13 02:09:33;;;;;;;7.97;3.28;;;4.20;99.90;;;;;;5059172;28;20091;-62
2024/01/13 02:11:58;;;;;;;9.88;3.10;;;2.00;99.90;;;;;;5042093;28;20095;-62
2024/01/13 02:14:24;;;;;;;8.77;3.08;;;3.70;99.90;;;;;;5060330;28;20037;-63
2024/01/13 02:16:50;;;;;;;10.63;3.40;;;4.10;99.90;;;;;;5060786;28;20553;-62
2024/01/13 02:19:16;;;;;;;10.40;2.70;;;1.70;99.90;;;;;;5060547;28;20064;-63
2024/01/13 02:21:42;;;;;;;11.73;3.28;;;2.10;99.90;;;;;;5059659;28;20374;-62
2024/01/13 02:24:07;;;;;;;9.93;3.03;;;4.00;99.90;;;;;;5060052;28;20052;-62
2024/01/13 02:26:34;;;;;;;9.88;3.05;;;1.50;99.90;;;;;;5059852;28;20525;-62
2024/01/13 02:29:00;;;;;;;10.68;2.95;;;1.80;99.90;;;;;;5059407;28;20045;-62
2024/01/13 02:31:26;;;;;;;9.25;2.20;;;3.60;99.90;;;;;;5041897;28;20037;-63
2024/01/13 02:33:52;;;;;;;11.85;1.95;;;1.60;99.90;;;;;;5060165;28;20438;-62
2024/01/13 02:36:18;;;;;;;12.40;3.35;;;1.70;99.90;;;;;;5059728;28;20041;-63
2024/01/13 02:38:44;;;;;;;9.30;3.35;;;3.90;99.90;;;;;;5060354;28;20044;-63
2024/01/13 02:41:10;;;;;;;7.38;2.45;;;1.80;99.90;;;;;;5059874;28;20053;-63
2024/01/13 02:43:36;;;;;;;12.73;2.58;;;1.50;99.90;;;;;;5041761;28;20045;-64
2024/01/13 02:46:02;;;;;;;12.65;2.05;;;1.50;99.90;;;;;;5059624;28;20048;-64
2024/01/13 02:48:34;;;;;;;8.55;1.80;;;2.30;99.90;;;;;;5059734;28;20535;-64
2024/01/13 02:51:02;;;;;;;6.72;1.98;;;2.00;99.90;;;;;;5042033;28;20437;-63
2024/01/13 02:53:28;;;;;;;12.25;1.85;;;4.10;99.90;;;;;;5058306;28;20041;-63
2024/01/13 02:55:54;;;;;;;7.43;1.80;;;3.60;99.90;;;;;;5041709;28;20121;-63
2024/01/13 02:58:19;;;;;;;8.77;1.70;;;1.50;99.90;;;;;;5059047;28;20037;-63
2024/01/13 03:00:45;;;;;;;6.78;1.48;;;4.40;99.90;;;;;;5041749;28;20072;-63
2024/01/13 03:03:11;;;;;;;7.25;1.30;;;3.00;99.90;;;;;;5057954;28;20063;-63
2024/01/13 03:05:37;;;;;;;7.50;2.08;;;2.00;99.90;;;;;;5059196;28;20048;-63
2024/01/13 03:08:03;;;;;;;6.70;1.45;;;4.10;99.90;;;;;;5041362;28;20671;-62
2024/01/13 03:10:31;;;;;;;8.13;1.70;;;1.80;99.90;;;;;;5059690;28;20037;-62
2024/01/13 03:12:56;;;;;;;6.75;1.88;;;3.30;99.90;;;;;;5041438;28;20048;-62
2024/01/13 03:15:22;;;;;;;6.28;1.60;;;1.60;99.90;;;;;;5041338;28;20053;-62
2024/01/13 03:17:48;;;;;;;8.43;1.67;;;2.30;99.90;;;;;;5059294;28;20080;-62
2024/01/13 03:20:13;;;;;;;5.00;1.55;;;2.50;99.90;;;;;;5058901;28;20037;-63
2024/01/13 03:22:39;;;;;;;10.02;1.60;;;3.80;99.90;;;;;;5058840;28;20045;-62
2024/01/13 03:25:06;;;;;;;7.28;1.60;;;1.40;99.90;;;;;;5057943;28;20052;-62
2024/01/13 03:27:31;;;;;;;5.60;1.48;;;3.90;99.90;;;;;;5057947;28;20432;-62
2024/01/13 03:29:57;;;;;;;9.00;1.90;;;1.60;99.90;;;;;;5059266;28;20051;-62
2024/01/13 03:32:23;;;;;;;6.13;1.65;;;3.20;99.90;;;;;;5059166;28;20572;-62
2024/01/13 03:34:48;;;;;;;6.68;1.90;;;3.50;99.90;;;;;;5057823;28;20049;-63
2024/01/13 03:37:14;;;;;;;6.90;1.70;;;2.10;99.90;;;;;;5040331;28;20041;-62
2024/01/13 03:39:40;;;;;;;8.52;1.88;;;3.20;99.90;;;;;;5057757;28;20043;-62
2024/01/13 03:42:06;;;;;;;8.05;1.88;;;3.90;99.90;;;;;;5058673;28;20425;-62
2024/01/13 03:44:32;;;;;;;6.43;1.58;;;2.80;99.90;;;;;;5040836;28;20041;-62
2024/01/13 03:46:58;;;;;;;6.85;1.67;;;4.00;99.90;;;;;;5058987;28;20048;-62
2024/01/13 03:49:23;;;;;;;5.43;1.65;;;2.20;99.90;;;;;;5057394;28;20041;-62
2024/01/13 03:51:49;;;;;;;6.60;1.42;;;2.00;99.90;;;;;;5058197;28;20101;-63
2024/01/13 03:54:14;;;;;;;8.48;1.50;;;1.50;99.90;;;;;;5058542;28;20132;-63
2024/01/13 03:56:40;;;;;;;6.18;1.45;;;3.80;99.90;;;;;;5040567;28;20033;-63
2024/01/13 03:59:06;;;;;;;10.85;1.98;;;4.20;99.90;;;;;;5023729;28;20048;-63
2024/01/13 04:01:32;;;;;;;7.80;2.00;;;2.70;99.90;;;;;;5040591;28;20041;-62
2024/01/13 04:03:58;;;;;;;10.23;2.00;;;3.40;99.90;;;;;;5058461;28;20041;-63
2024/01/13 04:06:24;;;;;;;7.20;1.55;;;2.50;99.90;;;;;;5040134;28;20049;-64
2024/01/13 04:08:49;;;;;;;7.90;1.88;;;4.10;99.90;;;;;;5058346;28;20053;-64
2024/01/13 04:11:15;;;;;;;5.78;1.80;;;4.10;99.90;;;;;;5058190;28;20079;-64
2024/01/13 04:13:40;;;;;;;8.25;1.83;;;4.10;99.90;;;;;;5058363;28;20539;-63
2024/01/13 04:16:07;;;;;;;6.22;1.77;;;4.20;99.90;;;;;;5040365;28;20056;-64
2024/01/13 04:18:33;;;;;;;9.98;1.70;;;2.40;99.90;;;;;;5058086;28;20079;-64
2024/01/13 04:20:59;;;;;;;10.55;2.00;;;4.00;99.90;;;;;;5024286;28;20109;-63
2024/01/13 04:23:25;;;;;;;7.15;2.28;;;1.60;99.90;;;;;;5058445;28;20056;-63
2024/01/13 04:25:50;;;;;;;7.07;1.95;;;2.10;99.90;;;;;;5040623;28;20580;-63
2024/01/13 04:28:16;;;;;;;8.45;2.50;;;3.70;99.90;;;;;;5039987;28;20037;-63
2024/01/13 04:30:42;;;;;;;7.25;2.28;;;4.30;99.90;;;;;;5040347;28;20049;-63
2024/01/13 04:33:08;;;;;;;10.85;2.58;;;1.50;99.90;;;;;;5057915;28;20049;-60
2024/01/13 04:35:33;;;;;;;10.23;2.58;;;1.50;99.90;;;;;;5057563;28;20104;-62
2024/01/13 04:37:59;;;;;;;9.48;2.28;;;4.00;99.90;;;;;;5058439;28;20076;-63
2024/01/13 04:40:25;;;;;;;9.90;2.47;;;1.80;99.90;;;;;;5058163;28;20523;-63
2024/01/13 04:42:51;;;;;;;12.13;2.60;;;2.60;99.90;;;;;;5058178;28;20049;-63
2024/01/13 04:45:16;;;;;;;10.85;2.50;;;1.70;99.90;;;;;;5058147;28;20072;-63
2024/01/13 04:47:42;;;;;;;10.07;2.42;;;1.70;99.90;;;;;;5039982;28;20465;-64
2024/01/13 04:50:09;;;;;;;8.43;2.50;;;3.10;99.90;;;;;;5058205;28;20171;-64
2024/01/13 04:52:36;;;;;;;10.25;2.67;;;4.40;99.90;;;;;;5061951;28;20109;-64
2024/01/13 04:55:02;;;;;;;9.95;2.33;;;4.30;99.90;;;;;;5068012;28;20048;-63
2024/01/13 04:57:28;;;;;;;8.52;2.15;;;3.90;99.90;;;;;;5081631;28;20048;-63
2024/01/13 04:59:53;;;;;;;7.15;2.28;;;1.70;99.90;;;;;;5047230;28;20056;-64
2024/01/13 05:02:19;;;;;;;8.27;2.20;;;2.40;99.90;;;;;;5063695;28;20560;-64
2024/01/13 05:04:45;;;;;;;9.25;2.10;;;3.80;99.90;;;;;;5063509;28;20090;-64
2024/01/13 05:07:10;;;;;;;8.55;1.88;;;1.80;99.90;;;;;;5063658;28;20049;-63
2024/01/13 05:09:37;;;;;;;9.23;2.15;;;1.50;99.90;;;;;;5081615;28;20612;-63
2024/01/13 05:12:03;;;;;;;9.55;2.03;;;1.60;99.90;;;;;;5081500;28;20044;-63
2024/01/13 05:14:28;;;;;;;8.60;2.33;;;2.70;99.90;;;;;;5063919;28;20096;-63
2024/01/13 05:16:54;;;;;;;12.60;1.92;;;2.70;99.90;;;;;;5081631;28;20495;-63
2024/01/13 05:19:20;;;;;;;7.38;2.03;;;2.20;99.90;;;;;;5063930;28;20044;-63
2024/01/13 05:21:46;;;;;;;9.23;2.07;;;4.30;99.90;;;;;;5081214;28;20076;-63
2024/01/13 05:24:12;;;;;;;9.45;2.00;;;4.10;99.90;;;;;;5081446;28;20245;-63
2024/01/13 05:26:38;;;;;;;7.15;1.98;;;4.00;99.90;;;;;;5063056;28;20044;-64
2024/01/13 05:29:04;;;;;;;8.77;1.90;;;4.40;99.90;;;;;;5081407;28;20044;-63
2024/01/13 05:31:30;;;;;;;9.63;2.00;;;1.80;99.90;;;;;;5063241;28;20047;-63
2024/01/13 05:33:55;;;;;;;8.80;1.83;;;4.40;99.90;;;;;;5063317;28;20121;-63
2024/01/13 05:36:22;;;;;;;9.23;1.98;;;2.30;99.90;;;;;;5046746;28;20052;-63
2024/01/13 05:38:48;;;;;;;18.38;4.05;;;4.30;99.90;;;;;;5081200;28;20088;-64
2024/01/13 05:41:14;;;;;;;6.18;2.20;;;3.50;99.90;;;;;;5063032;28;20079;-63
2024/01/13 05:43:40;;;;;;;7.38;2.22;;;1.60;99.90;;;;;;5081046;28;20193;-63
2024/01/13 05:46:05;;;;;;;6.38;1.60;;;2.20;99.90;;;;;;5080860;28;20082;-64
2024/01/13 05:48:31;;;;;;;7.47;1.50;;;3.60;99.90;;;;;;5079587;28;20041;-63
2024/01/13 05:50:57;;;;;;;6.43;1.73;;;4.30;99.90;;;;;;5062928;28;20049;-63
2024/01/13 05:53:22;;;;;;;6.85;1.80;;;1.50;99.90;;;;;;5046492;28;20092;-62
2024/01/13 05:55:48;;;;;;;6.30;1.70;;;1.70;99.90;;;;;;5081009;28;20060;-63
2024/01/13 05:58:14;;;;;;;6.45;1.98;;;1.60;99.90;;;;;;5046101;28;20074;-63
2024/01/13 06:00:39;;;;;;;7.07;2.28;;;4.00;99.90;;;;;;5045910;28;20104;-63
2024/01/13 06:03:05;;;;;;;6.82;2.40;;;2.00;99.90;;;;;;5079166;28;20048;-63
2024/01/13 06:05:33;;;;;;;8.68;2.90;;;1.60;99.90;;;;;;5062485;28;20037;-62
2024/01/13 06:07:59;;;;;;;7.93;2.10;;;4.10;99.90;;;;;;5080546;28;20048;-62
2024/01/13 06:10:27;;;;;;;7.63;2.05;;;1.50;99.90;;;;;;5080687;28;20055;-63
2024/01/13 06:12:54;;;;;;;8.70;2.10;;;1.80;99.90;;;;;;5079278;28;20052;-62
2024/01/13 06:15:19;;;;;;;8.90;2.33;;;2.10;99.90;;;;;;5080555;28;20052;-62
2024/01/13 06:17:45;;;;;;;8.95;2.70;;;3.40;99.90;;;;;;5080365;28;20055;-62
2024/01/13 06:20:11;;;;;;;8.48;2.28;;;2.90;99.90;;;;;;5080326;28;20037;-62
2024/01/13 06:22:37;;;;;;;7.38;2.38;;;1.70;99.90;;;;;;5080126;28;20048;-62
2024/01/13 06:25:03;;;;;;;9.02;2.47;;;1.80;99.90;;;;;;5058206;28;20108;-61
2024/01/13 06:27:28;;;;;;;5.50;2.05;;;4.20;99.90;;;;;;5058430;28;20045;-62
2024/01/13 06:29:54;;;;;;;8.77;2.35;;;3.80;99.90;;;;;;5058622;28;20081;-62
2024/01/13 06:32:20;;;;;;;7.10;2.20;;;1.60;99.90;;;;;;5076542;28;20441;-61
2024/01/13 06:34:45;;;;;;;6.40;2.10;;;4.30;99.90;;;;;;5057491;28;20117;-62
2024/01/13 06:37:11;;;;;;;7.28;1.90;;;1.90;99.90;;;;;;5075850;28;20131;-62
2024/01/13 06:39:37;;;;;;;7.63;2.00;;;1.60;99.90;;;;;;5057748;28;20063;-62
2024/01/13 06:42:06;;;;;;;6.78;1.60;;;4.20;99.90;;;;;;5075888;28;20747;-63
2024/01/13 06:44:33;;;;;;;5.07;1.50;;;3.10;99.90;;;;;;5076465;28;20051;-62
2024/01/13 06:46:59;;;;;;;4.50;1.40;;;3.00;99.90;;;;;;5058687;28;20033;-62
2024/01/13 06:49:24;;;;;;;6.60;1.73;;;3.80;99.90;;;;;;5075621;28;20075;-62
2024/01/13 06:51:50;;;;;;;4.53;1.40;;;4.10;99.90;;;;;;5075686;28;20040;-62
2024/01/13 06:54:16;;;;;;;5.13;1.52;;;4.20;99.90;;;;;;5075600;28;20047;-62
2024/01/13 06:56:41;;;;;;;6.57;1.40;;;4.50;99.90;;;;;;5056597;28;20044;-62
2024/01/13 06:59:08;;;;;;;6.50;1.85;;;2.50;99.90;;;;;;5057656;28;20312;-63
2024/01/13 07:01:33;;;;;;;4.38;1.40;;;3.60;99.90;;;;;;5073986;28;20544;-63
2024/01/13 07:03:59;;;;;;;4.68;1.60;;;2.10;99.90;;;;;;5074829;28;20059;-63
2024/01/13 07:06:25;;;;;;;4.78;1.58;;;4.20;99.90;;;;;;5075248;28;20033;-63
2024/01/13 07:08:50;;;;;;;6.28;2.05;;;1.60;99.90;;;;;;5074228;28;20065;-63
2024/01/13 07:11:16;;;;;;;6.47;2.20;;;4.20;99.90;;;;;;5074932;28;20047;-64
2024/01/13 07:13:43;;;;;;;5.07;2.00;;;4.40;99.90;;;;;;5057102;28;20101;-64
2024/01/13 07:16:10;;;;;;;6.47;2.15;;;4.50;99.90;;;;;;5075140;28;20036;-63
2024/01/13 07:18:35;;;;;;;6.55;1.88;;;4.40;99.90;;;;;;5062865;28;20045;-63
2024/01/13 07:21:01;;;;;;;4.32;1.63;;;1.60;99.90;;;;;;5075628;28;20044;-63
2024/01/13 07:23:28;;;;;;;7.28;2.80;;;1.70;99.90;;;;;;5073841;28;20051;-64
2024/01/13 07:25:55;;;;;;;10.50;2.40;;;3.70;99.90;;;;;;5057325;28;20055;-63
2024/01/13 07:28:21;;;;;;;5.60;2.05;;;1.70;99.90;;;;;;5074860;28;20051;-63
2024/01/13 07:30:47;;;;;;;7.03;2.28;;;4.50;99.90;;;;;;5074962;28;20548;-63
2024/01/13 07:33:13;;;;;;;10.00;3.20;;;1.80;99.90;;;;;;5075083;28;20044;-62
2024/01/13 07:35:39;;;;;;;10.75;3.40;;;4.40;99.90;;;;;;5074352;28;20048;-62
2024/01/13 07:38:04;;;;;;;13.70;5.03;;;4.20;99.90;;;;;;5075498;28;20036;-62
2024/01/13 07:40:30;;;;;;;13.70;5.50;;;3.60;99.90;;;;;;5056913;28;20071;-62
2024/01/13 07:42:56;;;;;;;18.40;6.68;;;4.40;99.90;;;;;;5075097;28;20044;-62
2024/01/13 07:45:22;;;;;;;19.00;8.38;;;1.80;99.90;;;;;;5074536;28;20135;-62
2024/01/13 07:47:49;;;;;;;20.98;8.35;;;1.90;99.90;;;;;;5073155;28;20442;-62
2024/01/13 07:50:16;;;;;;;20.98;9.07;;;3.70;99.90;;;;;;5073801;28;20055;-63
2024/01/13 07:52:41;;;;;;;24.42;9.38;;;2.70;99.90;;;;;;5073587;28;20045;-63
2024/01/13 07:55:07;;;;;;;30.05;11.20;;;2.80;99.90;;;;;;5072069;28;20048;-62
2024/01/13 07:57:35;;;;;;;35.08;12.77;;;1.80;99.90;;;;;;5062214;28;20044;-62
2024/01/13 08:00:01;;;;;;;33.35;14.30;;;2.70;99.90;;;;;;5074281;28;20537;-62
2024/01/13 08:02:27;;;;;;;38.47;15.32;;;4.50;99.90;;;;;;5056392;28;20040;-61
2024/01/13 08:04:52;;;;;;;40.42;17.27;;;4.40;99.90;;;;;;5074462;28;20044;-63
2024/01/13 08:07:20;;;;;;;48.13;18.15;;;4.50;99.90;;;;;;5056245;28;20365;-62
2024/01/13 08:09:47;;;;;;;51.92;21.15;;;3.90;99.90;;;;;;5056652;28;20083;-63
2024/01/13 08:12:13;;;;;;;48.38;20.35;;;4.50;99.90;;;;;;5074218;28;20076;-62
2024/01/13 08:14:39;;;;;;;51.30;20.15;;;4.30;99.90;;;;;;5075048;28;20520;-62
2024/01/13 08:17:06;;;;;;;54.47;21.52;;;2.50;99.90;;;;;;5074706;28;20059;-62
2024/01/13 08:19:31;;;;;;;60.00;23.38;;;2.30;99.90;;;;;;5056400;28;20105;-61
2024/01/13 08:21:57;;;;;;;58.95;21.88;;;2.70;99.90;;;;;;5039817;28;20139;-62
2024/01/13 08:24:23;;;;;;;59.58;24.75;;;1.90;99.90;;;;;;5074063;28;20129;-62
2024/01/13 08:26:48;;;;;;;61.78;27.80;;;4.40;99.90;;;;;;5077546;28;20055;-62
2024/01/13 08:29:14;;;;;;;61.38;25.00;;;3.10;99.90;;;;;;5043839;28;20036;-61
2024/01/13 08:31:40;;;;;;;73.38;29.00;;;4.30;99.90;;;;;;5078387;28;20036;-61
2024/01/13 08:34:09;;;;;;;65.38;26.77;;;2.20;99.90;;;;;;5078523;28;20040;-61
2024/01/13 08:36:35;;;;;;;70.25;28.35;;;3.20;99.90;;;;;;5078169;28;20143;-62
2024/01/13 08:39:00;;;;;;;69.47;28.42;;;4.30;99.90;;;;;;5043587;28;20082;-62
2024/01/13 08:41:26;;;;;;;67.20;28.35;;;2.20;99.90;;;;;;5078541;28;20032;-62
2024/01/13 08:43:52;;;;;;;77.65;28.77;;;2.20;99.90;;;;;;5078070;28;20036;-62
2024/01/13 08:46:17;;;;;;;74.95;31.45;;;3.90;99.90;;;;;;5078054;28;20040;-61
2024/01/13 08:48:43;;;;;;;86.05;34.15;;;3.30;99.90;;;;;;5078266;28;20053;-62
2024/01/13 08:51:09;;;;;;;75.00;30.77;;;2.30;99.90;;;;;;5077952;28;20047;-62
2024/01/13 08:53:34;;;;;;;68.72;29.13;;;4.10;99.90;;;;;;5060295;28;20044;-61
2024/01/13 08:56:00;;;;;;;72.80;31.90;;;2.30;99.90;;;;;;5059782;28;20075;-61
2024/01/13 08:58:26;;;;;;;70.05;31.48;;;3.30;99.90;;;;;;5059776;28;20052;-62
2024/01/13 09:00:54;;;;;;;67.30;28.40;;;2.50;99.90;;;;;;5059304;28;20055;-61
2024/01/13 09:03:21;;;;;;;62.65;28.25;;;4.30;99.90;;;;;;5077275;28;20649;-61
2024/01/13 09:05:47;;;;;;;64.40;29.95;;;3.90;99.90;;;;;;5059654;28;20052;-61
2024/01/13 09:08:13;;;;;;;71.22;31.40;;;2.70;99.90;;;;;;5077760;28;20396;-61
2024/01/13 09:10:39;;;;;;;60.20;28.65;;;4.30;99.90;;;;;;5078121;28;20039;-61
2024/01/13 09:13:05;;;;;;;66.07;29.50;;;4.30;99.90;;;;;;5077452;28;20056;-61
2024/01/13 09:15:31;;;;;;;70.35;31.27;;;4.40;99.90;;;;;;5059859;28;20151;-61
2024/01/13 09:17:57;;;;;;;67.70;30.85;;;2.50;99.90;;;;;;5077557;28;21129;-62
2024/01/13 09:20:23;;;;;;;64.80;30.45;;;4.10;99.90;;;;;;5077513;28;20051;-61
2024/01/13 09:22:49;;;;;;;61.65;29.60;;;4.30;99.90;;;;;;5042750;28;20523;-61
2024/01/13 09:25:15;;;;;;;61.88;28.23;;;4.40;99.90;;;;;;5075893;28;20053;-61
2024/01/13 09:27:41;;;;;;;65.60;28.88;;;4.40;99.90;;;;;;5077818;28;20052;-61
2024/01/13 09:30:07;;;;;;;62.65;28.42;;;2.40;99.90;;;;;;5077409;28;20041;-62
2024/01/13 09:32:33;;;;;;;66.53;27.88;;;3.90;99.90;;;;;;5059075;28;20959;-61
2024/01/13 09:34:58;;;;;;;68.25;28.35;;;4.50;99.90;;;;;;5077001;28;20055;-61
2024/01/13 09:37:24;;;;;;;60.50;26.98;;;2.30;99.90;;;;;;5075148;28;20052;-61
2024/01/13 09:39:51;;;;;;;60.92;29.58;;;2.40;99.90;;;;;;5059416;28;20048;-62
2024/01/13 09:42:50;;;;;;;53.75;26.80;;;2.90;99.90;;;;;;5077130;28;20044;-61
2024/01/13 09:45:18;;;;;;;54.50;24.25;;;4.10;99.90;;;;;;5059749;28;20076;-61
2024/01/13 09:47:45;;;;;;;52.72;25.17;;;2.50;99.90;;;;;;5058359;28;20392;-61
2024/01/13 09:50:11;;;;;;;55.05;24.63;;;2.50;99.90;;;;;;5042742;28;20049;-62
2024/01/13 09:52:39;;;;;;;57.83;24.83;;;4.50;99.90;;;;;;5059061;28;20074;-62
2024/01/13 09:55:07;;;;;;;50.22;24.20;;;2.50;99.90;;;;;;5077080;28;20148;-61
2024/01/13 09:57:34;;;;;;;54.28;24.17;;;4.60;99.90;;;;;;5058857;28;20471;-61
2024/01/13 10:00:01;;;;;;;57.67;23.15;;;3.50;99.90;;;;;;5058263;28;20095;-61
2024/01/13 10:02:28;;;;;;;55.45;24.60;;;2.50;99.90;;;;;;5076522;28;20048;-61
2024/01/13 10:04:54;;;;;;;56.95;25.63;;;4.60;99.90;;;;;;5076515;28;20102;-61
2024/01/13 10:07:20;;;;;;;53.88;24.45;;;2.50;99.90;;;;;;5058442;28;20048;-61
2024/01/13 10:09:46;;;;;;;54.47;23.90;;;3.30;99.90;;;;;;5058705;28;20111;-61
2024/01/13 10:12:11;;;;;;;50.53;23.50;;;2.60;99.90;;;;;;5058099;28;20051;-61
2024/01/13 10:14:38;;;;;;;47.63;22.27;;;4.60;99.90;;;;;;5058496;28;20042;-61
2024/01/13 10:17:05;;;;;;;47.83;21.95;;;3.00;99.90;;;;;;5059335;28;20055;-61
2024/01/13 10:19:40;;;;;;;44.67;20.55;;;2.70;99.90;;;;;;5058169;28;20036;-61
2024/01/13 10:22:06;;;;;;;42.95;20.65;;;2.80;99.90;;;;;;5058146;28;20068;-61
2024/01/13 10:24:36;;;;;;;43.88;18.83;;;3.80;99.90;;;;;;5075792;28;20028;-61
2024/01/13 10:27:08;;;;;;;44.83;18.98;;;5.10;99.90;;;;;;5076342;28;20109;-62
2024/01/13 10:29:35;;;;;;;38.95;18.05;;;4.20;99.90;;;;;;5058526;28;20109;-61
2024/01/13 10:32:03;;;;;;;42.70;19.20;;;4.30;99.90;;;;;;5058165;28;20040;-61
2024/01/13 10:34:30;;;;;;;38.50;19.40;;;3.00;99.90;;;;;;5057800;28;20056;-61
2024/01/13 10:37:09;;;;;;;45.88;21.73;;;3.90;99.90;;;;;;5057295;28;20044;-61
2024/01/13 10:39:35;;;;;;;44.75;20.63;;;2.90;99.90;;;;;;5058190;28;20033;-62
2024/01/13 10:42:06;;;;;;;40.17;19.85;;;5.10;99.90;;;;;;5041546;28;20056;-61
2024/01/13 10:44:39;;;;;;;38.37;18.50;;;4.90;99.90;;;;;;5058441;28;20074;-61
2024/01/13 10:47:12;;;;;;;43.35;17.83;;;4.80;99.90;;;;;;5076243;28;20451;-62
2024/01/13 10:49:40;;;;;;;46.83;17.83;;;4.10;99.90;;;;;;5074916;28;20044;-61
2024/01/13 10:52:06;;;;;;;40.63;16.75;;;3.00;99.90;;;;;;5040995;28;20582;-61
2024/01/13 10:54:33;;;;;;;34.67;14.80;;;2.70;99.90;;;;;;5075470;28;20063;-61
2024/01/13 10:56:59;;;;;;;34.03;15.20;;;3.70;99.90;;;;;;5075604;28;20040;-61
2024/01/13 10:59:32;;;;;;;31.75;14.45;;;3.10;99.90;;;;;;5075618;28;20606;-61
2024/01/13 11:01:59;;;;;;;32.63;14.35;;;5.30;99.90;;;;;;5075751;28;20048;-61
2024/01/13 11:04:25;;;;;;;32.92;14.60;;;4.80;99.90;;;;;;5057533;28;20044;-61
2024/01/13 11:06:51;;;;;;;29.92;12.23;;;5.20;99.90;;;;;;5075297;28;20056;-61
2024/01/13 11:09:21;;;;;;;30.45;11.45;;;5.30;99.90;;;;;;5075258;28;20059;-61
2024/01/13 11:12:03;;;;;;;27.70;10.60;;;2.70;99.90;;;;;;5074504;28;20089;-61
2024/01/13 11:14:34;;;;;;;22.58;10.80;;;5.30;99.90;;;;;;5072921;28;20762;-61
2024/01/13 11:17:01;;;;;;;23.58;8.88;;;5.30;99.90;;;;;;5074713;28;20072;-61
2024/01/13 11:19:26;;;;;;;22.20;8.77;;;2.90;99.90;;;;;;5074392;28;20045;-61
2024/01/13 11:21:52;;;;;;;23.20;9.18;;;2.80;99.90;;;;;;5074646;28;20090;-62
2024/01/13 11:24:19;;;;;;;26.17;8.85;;;5.90;99.90;;;;;;5056473;28;20561;-61
2024/01/13 11:26:49;;;;;;;20.38;7.05;;;3.90;99.90;;;;;;5074989;28;20048;-61
2024/01/13 11:29:27;;;;;;;22.45;7.18;;;5.50;99.90;;;;;;5073867;28;20059;-62
2024/01/13 11:32:02;;;;;;;19.23;5.38;;;3.00;99.90;;;;;;5075397;28;20057;-61
2024/01/13 11:34:28;;;;;;;18.70;5.38;;;4.20;99.90;;;;;;5074725;28;20097;-61
2024/01/13 11:36:58;;;;;;;19.33;4.90;;;5.60;99.90;;;;;;5073333;28;20044;-62
2024/01/13 11:39:24;;;;;;;14.95;4.82;;;5.20;99.90;;;;;;5074981;28;20079;-62
2024/01/13 11:41:56;;;;;;;11.15;4.43;;;3.60;99.90;;;;;;5057056;28;20492;-62
2024/01/13 11:44:24;;;;;;;13.23;5.70;;;3.20;99.90;;;;;;5074880;28;20048;-61
2024/01/13 11:47:06;;;;;;;17.63;6.03;;;2.90;99.90;;;;;;5075086;28;20056;-61
2024/01/13 11:49:36;;;;;;;;;;;2.90;99.90;;;;;;5075088;28;20041;-61
2024/01/13 11:52:03;;;;;;;16.48;6.00;;;5.70;99.90;;;;;;5074161;28;19960;-61
2024/01/13 11:54:35;;;;;;;14.32;5.15;;;4.00;99.90;;;;;;5074874;28;20055;-61
2024/01/13 11:57:08;;;;;;;17.42;5.53;;;2.90;99.90;;;;;;5056960;28;20506;-62
2024/01/13 11:59:34;;;;;;;11.07;4.75;;;5.50;99.90;;;;;;5074144;28;20127;-61
2024/01/13 12:02:00;;;;;;;15.10;4.97;;;6.00;99.90;;;;;;5074522;28;20076;-61
2024/01/13 12:04:28;;;;;;;14.82;4.90;;;3.10;99.90;;;;;;5056038;28;20037;-61
2024/01/13 12:06:54;;;;;;;18.33;4.97;;;2.90;99.90;;;;;;5074718;28;20519;-62
2024/01/13 12:09:24;;;;;;;17.30;5.53;;;5.90;99.90;;;;;;5072480;28;20113;-61
2024/01/13 12:12:00;;;;;;;13.50;4.30;;;4.90;99.90;;;;;;5072968;28;20093;-62
2024/01/13 12:14:28;;;;;;;12.85;3.97;;;6.00;99.90;;;;;;5056720;28;20056;-61
2024/01/13 12:16:58;;;;;;;10.65;4.28;;;3.10;99.90;;;;;;5056572;28;20110;-62
2024/01/13 12:19:32;;;;;;;15.07;2.88;;;5.60;99.90;;;;;;5074690;28;20490;-61
2024/01/13 12:21:57;;;;;;;13.68;4.10;;;5.70;99.90;;;;;;5073854;28;20044;-61
2024/01/13 12:24:28;;;;;;;10.05;2.13;;;5.00;99.90;;;;;;5055261;28;20041;-62
2024/01/13 12:26:54;;;;;;;8.55;2.15;;;6.10;99.90;;;;;;5056201;28;20098;-61
2024/01/13 12:29:24;;;;;;;8.02;2.13;;;4.20;99.90;;;;;;5074651;28;20091;-61
2024/01/13 12:31:50;;;;;;;9.50;2.22;;;3.20;99.90;;;;;;5074710;28;20079;-64
2024/01/13 12:34:16;;;;;;;6.70;2.17;;;3.10;99.90;;;;;;5056230;28;20426;-65
2024/01/13 12:36:42;;;;;;;8.48;1.90;;;3.10;99.90;;;;;;5074068;28;20131;-63
2024/01/13 12:39:10;;;;;;;5.20;1.80;;;6.50;99.90;;;;;;5074068;28;20090;-64
2024/01/13 12:41:37;;;;;;;6.68;2.00;;;6.40;99.90;;;;;;5074399;28;20052;-64
2024/01/13 12:44:06;;;;;;;4.93;1.98;;;6.60;99.90;;;;;;5074391;28;20048;-65